SUMU/MVD METAR and TAF weather

Enter ICAO airport designator
Station Type Date Time Source
SUMU METAR 2020/04/05 16:00 UTC NOAA

SUMU 051600Z 33010KT CAVOK 26/12 Q1011 NOSIG


Station Type Date Time Source
SUMU Decoded METAR 2020/04/05 16:00 UTC NOAA

Carrasco, Uruguay (SUMU) 34-50S 056-00W 32M
Apr 05, 2020 - 12:00 PM EDT / 2020.04.05 1600 UTC
Wind: from the NNW (330 degrees) at 12 MPH (10 KT):0
Visibility: greater than 7 mile(s):0
Temperature: 78 F (26 C)
Dew Point: 53 F (12 C)
Relative Humidity: 41%
Pressure (altimeter): 29.85 in. Hg (1011 hPa)
ob: SUMU 051600Z 33010KT CAVOK 26/12 Q1011 NOSIG
cycle: 16

Station Type Date Time Source
SUMU TAF 2020/04/05 12:30 UTC NOAA

TAF SUMU 051130Z 0512/0612 01010KT CAVOK TX26/0518Z TN16/0610Z
BECMG 0518/0520 9999 SCT015 BKN060

Example: see airport list